sensor_id;sensor_type;location;lat;lon;timestamp;temperature;humidity
20598;DHT22;10457;48.770;11.446;2023-03-01T00:00:27;1.40;66.70
20598;DHT22;10457;48.770;11.446;2023-03-01T00:05:49;1.50;66.00
20598;DHT22;10457;48.770;11.446;2023-03-01T00:11:14;1.50;66.00
20598;DHT22;10457;48.770;11.446;2023-03-01T00:16:39;1.50;66.20
20598;DHT22;10457;48.770;11.446;2023-03-01T00:22:02;1.40;65.90
20598;DHT22;10457;48.770;11.446;2023-03-01T00:27:24;1.40;65.70
20598;DHT22;10457;48.770;11.446;2023-03-01T00:32:46;1.30;65.90
20598;DHT22;10457;48.770;11.446;2023-03-01T00:38:08;1.30;66.60
20598;DHT22;10457;48.770;11.446;2023-03-01T00:43:29;1.30;66.70
20598;DHT22;10457;48.770;11.446;2023-03-01T00:48:53;1.30;67.20
20598;DHT22;10457;48.770;11.446;2023-03-01T00:54:15;1.30;66.90
20598;DHT22;10457;48.770;11.446;2023-03-01T00:59:36;1.30;67.20
20598;DHT22;10457;48.770;11.446;2023-03-01T01:04:59;1.30;67.20
20598;DHT22;10457;48.770;11.446;2023-03-01T01:10:21;1.30;66.70
20598;DHT22;10457;48.770;11.446;2023-03-01T01:15:43;1.40;66.10
20598;DHT22;10457;48.770;11.446;2023-03-01T01:21:08;1.30;66.40
20598;DHT22;10457;48.770;11.446;2023-03-01T01:26:32;1.30;66.40
20598;DHT22;10457;48.770;11.446;2023-03-01T01:31:54;1.20;66.60
20598;DHT22;10457;48.770;11.446;2023-03-01T01:37:17;1.30;66.60
20598;DHT22;10457;48.770;11.446;2023-03-01T01:42:39;1.20;66.70
20598;DHT22;10457;48.770;11.446;2023-03-01T01:48:03;1.20;66.60
20598;DHT22;10457;48.770;11.446;2023-03-01T01:53:28;1.20;67.10
20598;DHT22;10457;48.770;11.446;2023-03-01T01:58:50;1.20;67.50
20598;DHT22;10457;48.770;11.446;2023-03-01T02:04:12;1.30;67.20
20598;DHT22;10457;48.770;11.446;2023-03-01T02:09:35;1.20;67.50
20598;DHT22;10457;48.770;11.446;2023-03-01T02:14:57;1.20;67.50
20598;DHT22;10457;48.770;11.446;2023-03-01T02:20:22;1.20;67.40
20598;DHT22;10457;48.770;11.446;2023-03-01T02:25:52;1.20;67.30
20598;DHT22;10457;48.770;11.446;2023-03-01T02:31:19;1.20;67.30
20598;DHT22;10457;48.770;11.446;2023-03-01T02:37:01;1.20;67.10
20598;DHT22;10457;48.770;11.446;2023-03-01T02:42:28;1.20;66.50
20598;DHT22;10457;48.770;11.446;2023-03-01T02:47:55;1.20;66.70
20598;DHT22;10457;48.770;11.446;2023-03-01T02:53:25;1.10;66.80
20598;DHT22;10457;48.770;11.446;2023-03-01T02:58:49;1.10;67.50
20598;DHT22;10457;48.770;11.446;2023-03-01T03:04:16;1.00;66.80
20598;DHT22;10457;48.770;11.446;2023-03-01T03:09:41;0.80;67.50
20598;DHT22;10457;48.770;11.446;2023-03-01T03:15:04;0.70;67.90
20598;DHT22;10457;48.770;11.446;2023-03-01T03:20:30;0.50;68.60
20598;DHT22;10457;48.770;11.446;2023-03-01T03:25:52;0.30;69.30
20598;DHT22;10457;48.770;11.446;2023-03-01T03:31:14;0.20;69.50
20598;DHT22;10457;48.770;11.446;2023-03-01T03:36:37;0.10;70.30
20598;DHT22;10457;48.770;11.446;2023-03-01T03:41:58;0.00;70.60
20598;DHT22;10457;48.770;11.446;2023-03-01T03:47:20;-0.10;70.90
20598;DHT22;10457;48.770;11.446;2023-03-01T03:52:43;-0.10;71.10
20598;DHT22;10457;48.770;11.446;2023-03-01T03:58:06;-0.20;71.20
20598;DHT22;10457;48.770;11.446;2023-03-01T04:03:30;-0.20;71.30
20598;DHT22;10457;48.770;11.446;2023-03-01T04:08:54;-0.40;71.80
20598;DHT22;10457;48.770;11.446;2023-03-01T04:14:18;-0.40;72.30
20598;DHT22;10457;48.770;11.446;2023-03-01T04:19:39;-0.50;72.50
20598;DHT22;10457;48.770;11.446;2023-03-01T04:25:06;-0.60;72.80
20598;DHT22;10457;48.770;11.446;2023-03-01T04:30:28;-0.60;73.40
20598;DHT22;10457;48.770;11.446;2023-03-01T04:35:49;-0.60;74.00
20598;DHT22;10457;48.770;11.446;2023-03-01T04:41:12;-0.70;73.70
20598;DHT22;10457;48.770;11.446;2023-03-01T04:46:35;-0.70;74.10
20598;DHT22;10457;48.770;11.446;2023-03-01T04:51:56;-0.80;73.80
20598;DHT22;10457;48.770;11.446;2023-03-01T04:57:22;-0.80;73.80
20598;DHT22;10457;48.770;11.446;2023-03-01T05:02:44;-0.80;74.10
20598;DHT22;10457;48.770;11.446;2023-03-01T05:08:07;-0.90;74.30
20598;DHT22;10457;48.770;11.446;2023-03-01T05:13:30;-0.90;74.60
20598;DHT22;10457;48.770;11.446;2023-03-01T05:18:51;-0.90;74.70
20598;DHT22;10457;48.770;11.446;2023-03-01T05:24:15;-1.00;75.40
20598;DHT22;10457;48.770;11.446;2023-03-01T05:29:38;-1.00;75.40
20598;DHT22;10457;48.770;11.446;2023-03-01T05:34:59;-1.00;75.30
20598;DHT22;10457;48.770;11.446;2023-03-01T05:40:22;-0.90;74.90
20598;DHT22;10457;48.770;11.446;2023-03-01T05:45:45;-0.90;74.50
20598;DHT22;10457;48.770;11.446;2023-03-01T05:51:07;-0.90;74.30
20598;DHT22;10457;48.770;11.446;2023-03-01T05:56:28;-0.90;74.10
20598;DHT22;10457;48.770;11.446;2023-03-01T06:01:51;-1.00;74.70
20598;DHT22;10457;48.770;11.446;2023-03-01T06:07:13;-1.00;74.10
20598;DHT22;10457;48.770;11.446;2023-03-01T06:12:36;-0.90;73.60
20598;DHT22;10457;48.770;11.446;2023-03-01T06:17:59;-0.90;74.10
20598;DHT22;10457;48.770;11.446;2023-03-01T06:23:21;-0.80;73.30
20598;DHT22;10457;48.770;11.446;2023-03-01T06:28:42;-0.70;73.90
20598;DHT22;10457;48.770;11.446;2023-03-01T06:34:07;-0.70;73.70
20598;DHT22;10457;48.770;11.446;2023-03-01T06:39:30;-0.70;73.00
20598;DHT22;10457;48.770;11.446;2023-03-01T06:44:52;-0.70;73.00
20598;DHT22;10457;48.770;11.446;2023-03-01T06:50:16;-0.60;72.50
20598;DHT22;10457;48.770;11.446;2023-03-01T06:55:41;-0.50;71.60
20598;DHT22;10457;48.770;11.446;2023-03-01T07:01:05;-0.30;71.20
20598;DHT22;10457;48.770;11.446;2023-03-01T07:06:28;-0.20;70.30
20598;DHT22;10457;48.770;11.446;2023-03-01T07:11:50;-0.10;69.80
20598;DHT22;10457;48.770;11.446;2023-03-01T07:17:12;0.10;68.80
20598;DHT22;10457;48.770;11.446;2023-03-01T07:22:35;0.20;68.10
20598;DHT22;10457;48.770;11.446;2023-03-01T07:27:56;0.40;67.00
20598;DHT22;10457;48.770;11.446;2023-03-01T07:33:18;0.60;65.80
20598;DHT22;10457;48.770;11.446;2023-03-01T07:38:40;1.00;65.10
20598;DHT22;10457;48.770;11.446;2023-03-01T07:44:02;1.80;62.00
20598;DHT22;10457;48.770;11.446;2023-03-01T07:49:24;3.90;55.70
20598;DHT22;10457;48.770;11.446;2023-03-01T07:54:47;5.70;51.10
20598;DHT22;10457;48.770;11.446;2023-03-01T08:00:11;6.60;48.10
20598;DHT22;10457;48.770;11.446;2023-03-01T08:05:33;7.90;45.60
20598;DHT22;10457;48.770;11.446;2023-03-01T08:10:57;8.50;44.60
20598;DHT22;10457;48.770;11.446;2023-03-01T08:16:20;9.10;42.20
20598;DHT22;10457;48.770;11.446;2023-03-01T08:21:42;9.90;39.40
20598;DHT22;10457;48.770;11.446;2023-03-01T08:27:05;10.10;38.50
20598;DHT22;10457;48.770;11.446;2023-03-01T08:32:26;9.80;38.70
20598;DHT22;10457;48.770;11.446;2023-03-01T08:37:48;10.00;38.80
20598;DHT22;10457;48.770;11.446;2023-03-01T08:43:11;10.10;38.00
20598;DHT22;10457;48.770;11.446;2023-03-01T08:48:32;10.10;38.80
20598;DHT22;10457;48.770;11.446;2023-03-01T08:53:53;10.50;37.60
20598;DHT22;10457;48.770;11.446;2023-03-01T08:59:17;10.50;38.20
20598;DHT22;10457;48.770;11.446;2023-03-01T09:04:39;11.30;38.10
20598;DHT22;10457;48.770;11.446;2023-03-01T09:10:00;12.10;35.90
20598;DHT22;10457;48.770;11.446;2023-03-01T09:15:23;13.00;33.60
20598;DHT22;10457;48.770;11.446;2023-03-01T09:20:44;13.10;34.90
20598;DHT22;10457;48.770;11.446;2023-03-01T09:26:06;13.40;33.20
20598;DHT22;10457;48.770;11.446;2023-03-01T09:31:30;12.70;33.30
20598;DHT22;10457;48.770;11.446;2023-03-01T09:36:51;12.60;33.50
20598;DHT22;10457;48.770;11.446;2023-03-01T09:42:13;12.10;36.10
20598;DHT22;10457;48.770;11.446;2023-03-01T09:47:37;12.10;33.20
20598;DHT22;10457;48.770;11.446;2023-03-01T09:53:02;12.30;33.90
20598;DHT22;10457;48.770;11.446;2023-03-01T09:58:35;11.20;34.70
20598;DHT22;10457;48.770;11.446;2023-03-01T10:04:11;11.50;35.30
20598;DHT22;10457;48.770;11.446;2023-03-01T10:09:40;11.70;34.80
20598;DHT22;10457;48.770;11.446;2023-03-01T10:15:07;12.10;33.50
20598;DHT22;10457;48.770;11.446;2023-03-01T10:20:41;12.50;33.70
20598;DHT22;10457;48.770;11.446;2023-03-01T10:26:12;14.10;33.00
20598;DHT22;10457;48.770;11.446;2023-03-01T10:31:50;14.50;30.10
20598;DHT22;10457;48.770;11.446;2023-03-01T10:37:16;14.50;30.60
20598;DHT22;10457;48.770;11.446;2023-03-01T10:42:48;16.00;28.80
20598;DHT22;10457;48.770;11.446;2023-03-01T10:48:15;16.90;27.20
20598;DHT22;10457;48.770;11.446;2023-03-01T10:53:42;17.10;26.40
20598;DHT22;10457;48.770;11.446;2023-03-01T10:59:22;16.00;27.90
20598;DHT22;10457;48.770;11.446;2023-03-01T11:05:00;15.40;29.00
20598;DHT22;10457;48.770;11.446;2023-03-01T11:10:26;16.50;28.90
20598;DHT22;10457;48.770;11.446;2023-03-01T11:16:05;17.40;26.00
20598;DHT22;10457;48.770;11.446;2023-03-01T11:21:41;17.50;25.10
20598;DHT22;10457;48.770;11.446;2023-03-01T11:27:21;17.20;28.30
20598;DHT22;10457;48.770;11.446;2023-03-01T11:32:53;18.20;26.40
20598;DHT22;10457;48.770;11.446;2023-03-01T11:38:24;18.90;24.00
20598;DHT22;10457;48.770;11.446;2023-03-01T11:43:51;17.70;24.40
20598;DHT22;10457;48.770;11.446;2023-03-01T11:49:36;16.60;26.30
20598;DHT22;10457;48.770;11.446;2023-03-01T11:55:17;15.80;29.20
20598;DHT22;10457;48.770;11.446;2023-03-01T12:01:11;17.80;27.50
20598;DHT22;10457;48.770;11.446;2023-03-01T12:06:50;18.80;24.10
20598;DHT22;10457;48.770;11.446;2023-03-01T12:12:27;19.00;23.90
20598;DHT22;10457;48.770;11.446;2023-03-01T12:18:18;19.00;24.40
20598;DHT22;10457;48.770;11.446;2023-03-01T12:29:59;20.40;22.20
20598;DHT22;10457;48.770;11.446;2023-03-01T12:35:48;19.60;23.50
20598;DHT22;10457;48.770;11.446;2023-03-01T12:41:33;18.70;25.90
20598;DHT22;10457;48.770;11.446;2023-03-01T12:47:15;18.60;25.40
20598;DHT22;10457;48.770;11.446;2023-03-01T12:52:44;20.30;24.90
20598;DHT22;10457;48.770;11.446;2023-03-01T12:58:17;19.30;25.10
20598;DHT22;10457;48.770;11.446;2023-03-01T13:04:00;19.90;23.60
20598;DHT22;10457;48.770;11.446;2023-03-01T13:09:34;20.30;23.30
20598;DHT22;10457;48.770;11.446;2023-03-01T13:14:59;20.50;24.20
20598;DHT22;10457;48.770;11.446;2023-03-01T13:20:24;20.80;21.90
20598;DHT22;10457;48.770;11.446;2023-03-01T13:26:06;20.30;22.10
20598;DHT22;10457;48.770;11.446;2023-03-01T13:31:58;20.10;22.80
20598;DHT22;10457;48.770;11.446;2023-03-01T13:37:29;19.90;23.20
20598;DHT22;10457;48.770;11.446;2023-03-01T13:43:28;19.10;24.70
20598;DHT22;10457;48.770;11.446;2023-03-01T13:48:53;19.00;24.10
20598;DHT22;10457;48.770;11.446;2023-03-01T13:54:20;18.80;24.80
20598;DHT22;10457;48.770;11.446;2023-03-01T13:59:48;17.60;26.40
20598;DHT22;10457;48.770;11.446;2023-03-01T14:05:10;17.70;27.00
20598;DHT22;10457;48.770;11.446;2023-03-01T14:10:37;18.60;25.30
20598;DHT22;10457;48.770;11.446;2023-03-01T14:16:18;16.40;29.10
20598;DHT22;10457;48.770;11.446;2023-03-01T14:21:44;14.90;31.50
20598;DHT22;10457;48.770;11.446;2023-03-01T14:27:10;14.20;32.40
20598;DHT22;10457;48.770;11.446;2023-03-01T14:32:35;12.80;36.10
20598;DHT22;10457;48.770;11.446;2023-03-01T14:37:56;12.10;36.80
20598;DHT22;10457;48.770;11.446;2023-03-01T14:43:21;11.70;38.10
20598;DHT22;10457;48.770;11.446;2023-03-01T14:48:45;11.20;39.60
20598;DHT22;10457;48.770;11.446;2023-03-01T14:54:21;10.90;40.20
20598;DHT22;10457;48.770;11.446;2023-03-01T14:59:46;11.00;40.40
20598;DHT22;10457;48.770;11.446;2023-03-01T15:05:10;10.50;41.40
20598;DHT22;10457;48.770;11.446;2023-03-01T15:10:36;10.10;42.60
20598;DHT22;10457;48.770;11.446;2023-03-01T15:16:07;10.20;42.50
20598;DHT22;10457;48.770;11.446;2023-03-01T15:21:33;10.10;43.60
20598;DHT22;10457;48.770;11.446;2023-03-01T15:26:56;9.70;44.00
20598;DHT22;10457;48.770;11.446;2023-03-01T15:32:27;9.70;44.40
20598;DHT22;10457;48.770;11.446;2023-03-01T15:37:51;9.50;45.00
20598;DHT22;10457;48.770;11.446;2023-03-01T15:43:37;9.50;45.80
20598;DHT22;10457;48.770;11.446;2023-03-01T15:49:05;9.40;46.40
20598;DHT22;10457;48.770;11.446;2023-03-01T15:54:39;9.30;46.40
20598;DHT22;10457;48.770;11.446;2023-03-01T16:00:02;9.10;47.30
20598;DHT22;10457;48.770;11.446;2023-03-01T16:05:33;8.70;47.80
20598;DHT22;10457;48.770;11.446;2023-03-01T16:10:56;8.40;49.00
20598;DHT22;10457;48.770;11.446;2023-03-01T16:16:19;8.30;49.50
20598;DHT22;10457;48.770;11.446;2023-03-01T16:21:41;8.10;49.40
20598;DHT22;10457;48.770;11.446;2023-03-01T16:27:03;7.70;50.40
20598;DHT22;10457;48.770;11.446;2023-03-01T16:32:26;7.50;51.10
20598;DHT22;10457;48.770;11.446;2023-03-01T16:37:48;7.30;51.60
20598;DHT22;10457;48.770;11.446;2023-03-01T16:43:12;7.10;52.40
20598;DHT22;10457;48.770;11.446;2023-03-01T16:48:35;6.90;53.10
20598;DHT22;10457;48.770;11.446;2023-03-01T16:53:56;6.70;53.40
20598;DHT22;10457;48.770;11.446;2023-03-01T16:59:17;6.50;54.30
20598;DHT22;10457;48.770;11.446;2023-03-01T17:04:40;6.50;54.60
20598;DHT22;10457;48.770;11.446;2023-03-01T17:10:03;6.30;55.40
20598;DHT22;10457;48.770;11.446;2023-03-01T17:15:27;6.20;55.70
20598;DHT22;10457;48.770;11.446;2023-03-01T17:20:50;6.10;56.20
20598;DHT22;10457;48.770;11.446;2023-03-01T17:26:12;5.90;56.60
20598;DHT22;10457;48.770;11.446;2023-03-01T17:31:33;5.80;57.10
20598;DHT22;10457;48.770;11.446;2023-03-01T17:36:56;5.60;57.60
20598;DHT22;10457;48.770;11.446;2023-03-01T17:42:18;5.50;57.80
20598;DHT22;10457;48.770;11.446;2023-03-01T17:47:39;5.50;58.20
20598;DHT22;10457;48.770;11.446;2023-03-01T17:53:02;5.40;58.50
20598;DHT22;10457;48.770;11.446;2023-03-01T17:58:28;5.30;58.90
20598;DHT22;10457;48.770;11.446;2023-03-01T18:03:53;5.20;59.00
20598;DHT22;10457;48.770;11.446;2023-03-01T18:09:16;5.10;59.40
20598;DHT22;10457;48.770;11.446;2023-03-01T18:14:38;5.00;59.60
20598;DHT22;10457;48.770;11.446;2023-03-01T18:19:59;4.90;60.40
20598;DHT22;10457;48.770;11.446;2023-03-01T18:25:22;4.80;60.50
20598;DHT22;10457;48.770;11.446;2023-03-01T18:30:43;4.70;61.30
20598;DHT22;10457;48.770;11.446;2023-03-01T18:36:12;4.60;61.50
20598;DHT22;10457;48.770;11.446;2023-03-01T18:41:38;4.50;61.70
20598;DHT22;10457;48.770;11.446;2023-03-01T18:47:00;4.50;62.60
20598;DHT22;10457;48.770;11.446;2023-03-01T18:52:21;4.50;62.50
20598;DHT22;10457;48.770;11.446;2023-03-01T18:57:44;4.50;62.80
20598;DHT22;10457;48.770;11.446;2023-03-01T19:03:06;4.40;62.90
20598;DHT22;10457;48.770;11.446;2023-03-01T19:08:29;4.30;63.30
20598;DHT22;10457;48.770;11.446;2023-03-01T19:13:52;4.30;63.40
20598;DHT22;10457;48.770;11.446;2023-03-01T19:19:14;4.20;63.40
20598;DHT22;10457;48.770;11.446;2023-03-01T19:24:35;4.10;64.20
20598;DHT22;10457;48.770;11.446;2023-03-01T19:29:58;4.00;64.70
20598;DHT22;10457;48.770;11.446;2023-03-01T19:35:20;4.00;64.80
20598;DHT22;10457;48.770;11.446;2023-03-01T19:40:42;4.00;64.80
20598;DHT22;10457;48.770;11.446;2023-03-01T19:46:05;3.90;65.50
20598;DHT22;10457;48.770;11.446;2023-03-01T19:51:26;3.80;66.10
20598;DHT22;10457;48.770;11.446;2023-03-01T19:56:49;3.80;66.30
20598;DHT22;10457;48.770;11.446;2023-03-01T20:02:12;3.70;66.60
20598;DHT22;10457;48.770;11.446;2023-03-01T20:07:33;3.70;67.00
20598;DHT22;10457;48.770;11.446;2023-03-01T20:12:54;3.70;67.30
20598;DHT22;10457;48.770;11.446;2023-03-01T20:18:17;3.60;67.60
20598;DHT22;10457;48.770;11.446;2023-03-01T20:23:38;3.50;68.20
20598;DHT22;10457;48.770;11.446;2023-03-01T20:29:00;3.40;68.50
20598;DHT22;10457;48.770;11.446;2023-03-01T20:34:23;3.30;69.40
20598;DHT22;10457;48.770;11.446;2023-03-01T20:39:44;3.30;69.60
20598;DHT22;10457;48.770;11.446;2023-03-01T20:45:07;3.20;70.10
20598;DHT22;10457;48.770;11.446;2023-03-01T20:50:30;3.20;70.30
20598;DHT22;10457;48.770;11.446;2023-03-01T20:55:51;3.20;70.80
20598;DHT22;10457;48.770;11.446;2023-03-01T21:01:16;3.10;71.10
20598;DHT22;10457;48.770;11.446;2023-03-01T21:06:44;3.00;71.40
20598;DHT22;10457;48.770;11.446;2023-03-01T21:12:06;3.00;71.90
20598;DHT22;10457;48.770;11.446;2023-03-01T21:17:29;3.00;72.00
20598;DHT22;10457;48.770;11.446;2023-03-01T21:22:52;2.90;72.20
20598;DHT22;10457;48.770;11.446;2023-03-01T21:28:15;2.90;72.60
20598;DHT22;10457;48.770;11.446;2023-03-01T21:33:45;2.80;72.70
20598;DHT22;10457;48.770;11.446;2023-03-01T21:39:12;2.80;73.30
20598;DHT22;10457;48.770;11.446;2023-03-01T21:44:34;2.70;73.60
20598;DHT22;10457;48.770;11.446;2023-03-01T21:49:56;2.60;74.10
20598;DHT22;10457;48.770;11.446;2023-03-01T21:55:22;2.60;74.40
20598;DHT22;10457;48.770;11.446;2023-03-01T22:00:48;2.50;75.00
20598;DHT22;10457;48.770;11.446;2023-03-01T22:06:12;2.50;75.00
20598;DHT22;10457;48.770;11.446;2023-03-01T22:11:41;2.50;75.40
20598;DHT22;10457;48.770;11.446;2023-03-01T22:17:12;2.50;75.50
20598;DHT22;10457;48.770;11.446;2023-03-01T22:22:34;2.40;75.90
20598;DHT22;10457;48.770;11.446;2023-03-01T22:27:58;2.40;76.10
20598;DHT22;10457;48.770;11.446;2023-03-01T22:33:20;2.40;76.20
20598;DHT22;10457;48.770;11.446;2023-03-01T22:38:49;2.40;76.10
20598;DHT22;10457;48.770;11.446;2023-03-01T22:44:22;2.40;76.10
20598;DHT22;10457;48.770;11.446;2023-03-01T22:49:43;2.40;76.10
20598;DHT22;10457;48.770;11.446;2023-03-01T22:55:06;2.40;76.50
20598;DHT22;10457;48.770;11.446;2023-03-01T23:00:30;2.40;76.30
20598;DHT22;10457;48.770;11.446;2023-03-01T23:05:51;2.40;76.10
20598;DHT22;10457;48.770;11.446;2023-03-01T23:11:15;2.50;76.10
20598;DHT22;10457;48.770;11.446;2023-03-01T23:16:38;2.50;76.20
20598;DHT22;10457;48.770;11.446;2023-03-01T23:21:59;2.50;76.10
20598;DHT22;10457;48.770;11.446;2023-03-01T23:27:21;2.40;76.00
20598;DHT22;10457;48.770;11.446;2023-03-01T23:32:44;2.50;76.10
20598;DHT22;10457;48.770;11.446;2023-03-01T23:38:05;2.40;76.20
20598;DHT22;10457;48.770;11.446;2023-03-01T23:43:26;2.40;76.40
20598;DHT22;10457;48.770;11.446;2023-03-01T23:48:50;2.30;76.50
20598;DHT22;10457;48.770;11.446;2023-03-01T23:54:14;2.30;76.80
20598;DHT22;10457;48.770;11.446;2023-03-01T23:59:37;2.20;76.90
